< < Back
Terminal Aerodrome Forecast


Current Version              Previous Versions:   1  2  3  4  5  6  7  8  9  

Terminal Aerodrome Forecast

881
FTUS42 KFFC 291359 AAA
TAFATL
TAF AMD
KATL 291359Z 2914/3018 15010KT P6SM SKC
     FM292000 19007KT P6SM SCT050
     FM300300 17007KT P6SM BKN035
     FM301100 22010KT P6SM OVC012
     FM301300 23009KT P6SM VCSH SCT008 BKN012=



Latest METAR

807
SAUS70 KWBC 291900 RRA
MTRATL
METAR KATL 291852Z 20009KT 10SM FEW250 14/M09 A3033 RMK AO2 SLP273
T01391089


USA.gov is the U.S. government's official web portal to all federal, state and local government web resources and services.